Time;durP1;ratioP1;P1;durP2;ratioP2;P2;SDS_P1;SDS_P2;PMS_P1;PMS_P2;Temp;Humidity;BMP_temperature;BMP_pressure;BME280_temperature;BME280_humidity;BME280_pressure;Samples;Min_cycle;Max_cycle;Signal;HPM_P1;HPM_P2
2022/05/02 00:00:42;;;;;;;8.02;4.68;;;7.90;99.90;;;;;;5074111;28;20048;-69
2022/05/02 00:03:08;;;;;;;5.65;4.25;;;7.80;99.90;;;;;;5073983;28;20040;-69
2022/05/02 00:05:34;;;;;;;6.78;4.75;;;7.70;99.90;;;;;;5074253;28;20120;-69
2022/05/02 00:07:59;;;;;;;9.32;4.75;;;7.70;99.90;;;;;;5074247;28;20131;-69
2022/05/02 00:10:25;;;;;;;5.78;4.10;;;7.70;99.90;;;;;;5073806;28;20420;-69
2022/05/02 00:12:51;;;;;;;6.43;4.70;;;7.60;99.90;;;;;;5074084;28;20036;-69
2022/05/02 00:15:16;;;;;;;5.93;4.53;;;7.60;99.90;;;;;;5057122;28;20542;-69
2022/05/02 00:17:57;;;;;;;7.55;4.72;;;7.60;99.90;;;;;;5073790;28;20090;-69
2022/05/02 00:20:41;;;;;;;7.20;4.82;;;7.50;99.90;;;;;;5074037;28;20032;-69
2022/05/02 00:23:09;;;;;;;7.18;4.68;;;7.50;99.90;;;;;;5073698;28;20037;-69
2022/05/02 00:25:35;;;;;;;6.25;4.38;;;7.50;99.90;;;;;;5073523;28;20044;-69
2022/05/02 00:28:02;;;;;;;8.15;4.88;;;7.40;99.90;;;;;;5073821;28;20123;-69
2022/05/02 00:30:28;;;;;;;6.35;4.88;;;7.40;99.90;;;;;;5073639;28;20044;-69
2022/05/02 00:32:57;;;;;;;6.40;4.50;;;7.40;99.90;;;;;;5072800;28;20455;-69
2022/05/02 00:35:24;;;;;;;8.23;5.25;;;7.30;99.90;;;;;;5073319;28;20404;-69
2022/05/02 00:37:50;;;;;;;7.70;4.93;;;7.30;99.90;;;;;;5073576;28;20508;-69
2022/05/02 00:40:17;;;;;;;8.63;5.90;;;7.30;99.90;;;;;;5056689;28;20048;-69
2022/05/02 00:42:44;;;;;;;6.60;5.20;;;7.30;99.90;;;;;;5073255;28;20051;-69
2022/05/02 00:45:11;;;;;;;6.57;4.80;;;7.20;99.90;;;;;;5073118;28;20047;-69
2022/05/02 00:47:37;;;;;;;7.65;5.00;;;7.20;99.90;;;;;;5073311;28;20481;-69
2022/05/02 00:50:04;;;;;;;8.52;4.93;;;7.20;99.90;;;;;;5073305;28;20050;-69
2022/05/02 00:52:30;;;;;;;9.95;4.78;;;7.20;99.90;;;;;;5056655;28;20115;-69
2022/05/02 00:54:56;;;;;;;6.47;4.85;;;7.20;99.90;;;;;;5072989;28;20127;-69
2022/05/02 00:57:22;;;;;;;9.20;5.50;;;7.20;99.90;;;;;;5073242;28;20032;-69
2022/05/02 00:59:48;;;;;;;6.25;5.25;;;7.10;99.90;;;;;;5073165;28;20062;-69
2022/05/02 01:02:15;;;;;;;7.80;5.30;;;7.20;99.90;;;;;;5073103;28;20554;-69
2022/05/02 01:04:42;;;;;;;6.97;5.10;;;7.10;99.90;;;;;;5072846;28;20146;-69
2022/05/02 01:07:11;;;;;;;8.38;5.03;;;7.10;99.90;;;;;;5072671;28;20068;-69
2022/05/02 01:09:44;;;;;;;7.78;4.78;;;7.10;99.90;;;;;;5072695;28;20037;-69
2022/05/02 01:12:14;;;;;;;8.60;4.88;;;7.10;99.90;;;;;;5072990;28;20043;-69
2022/05/02 01:14:42;;;;;;;7.45;5.35;;;7.00;99.90;;;;;;5072887;28;20044;-69
2022/05/02 01:17:08;;;;;;;7.45;5.05;;;7.10;99.90;;;;;;5072496;28;20091;-69
2022/05/02 01:19:35;;;;;;;9.52;5.35;;;7.00;99.90;;;;;;5055841;28;20037;-69
2022/05/02 01:22:01;;;;;;;7.07;5.40;;;7.00;99.90;;;;;;5072724;28;20075;-69
2022/05/02 01:24:41;;;;;;;6.85;5.75;;;7.00;99.90;;;;;;5072444;28;20520;-69
2022/05/02 01:27:08;;;;;;;8.93;5.18;;;7.00;99.90;;;;;;5072302;28;20040;-69
2022/05/02 01:29:36;;;;;;;8.52;5.25;;;6.90;99.90;;;;;;5072349;28;20044;-69
2022/05/02 01:32:07;;;;;;;7.72;5.70;;;6.90;99.90;;;;;;5072276;28;20033;-69
2022/05/02 01:34:33;;;;;;;8.25;5.82;;;6.80;99.90;;;;;;5072394;28;20477;-69
2022/05/02 01:37:00;;;;;;;10.15;5.93;;;6.80;99.90;;;;;;5072141;28;20033;-69
2022/05/02 01:39:26;;;;;;;8.35;5.78;;;6.80;99.90;;;;;;5072449;28;20032;-69
2022/05/02 01:41:51;;;;;;;10.05;5.75;;;6.80;99.90;;;;;;5072517;28;20557;-69
2022/05/02 01:44:17;;;;;;;8.95;5.10;;;6.80;99.90;;;;;;5071495;28;20508;-69
2022/05/02 01:46:43;;;;;;;11.18;5.88;;;6.70;99.90;;;;;;5071902;28;20494;-69
2022/05/02 01:49:09;;;;;;;10.30;5.82;;;6.70;99.90;;;;;;5072318;28;20413;-69
2022/05/02 01:51:34;;;;;;;9.25;6.68;;;6.70;99.90;;;;;;5071974;28;20052;-69
2022/05/02 01:54:00;;;;;;;8.70;5.68;;;6.70;99.90;;;;;;5072027;28;20130;-69
2022/05/02 01:56:26;;;;;;;8.45;6.40;;;6.70;99.90;;;;;;5071966;28;20090;-69
2022/05/02 01:58:52;;;;;;;9.75;6.15;;;6.70;99.90;;;;;;5072206;28;20025;-69
2022/05/02 02:01:17;;;;;;;9.23;6.30;;;6.70;99.90;;;;;;5071939;28;20493;-69
2022/05/02 02:03:43;;;;;;;9.30;6.07;;;6.70;99.90;;;;;;5071922;28;20044;-69
2022/05/02 02:06:08;;;;;;;7.75;6.30;;;6.60;99.90;;;;;;5071796;28;20041;-69
2022/05/02 02:08:35;;;;;;;10.00;6.75;;;6.60;99.90;;;;;;5055141;28;20037;-69
2022/05/02 02:11:05;;;;;;;8.50;6.68;;;6.60;99.90;;;;;;5071704;28;20405;-69
2022/05/02 02:13:31;;;;;;;8.88;6.65;;;6.60;99.90;;;;;;5071849;28;20037;-69
2022/05/02 02:15:59;;;;;;;8.18;6.80;;;6.50;99.90;;;;;;5071664;28;20389;-69
2022/05/02 02:18:24;;;;;;;7.53;6.30;;;6.50;99.90;;;;;;5071660;28;20037;-69
2022/05/02 02:20:53;;;;;;;10.68;6.95;;;6.50;99.90;;;;;;5071694;28;20097;-69
2022/05/02 02:23:20;;;;;;;9.90;7.03;;;6.50;99.90;;;;;;5071663;28;20409;-69
2022/05/02 02:25:45;;;;;;;9.20;6.43;;;6.50;99.90;;;;;;5071607;28;20114;-69
2022/05/02 02:28:16;;;;;;;9.32;6.65;;;6.50;99.90;;;;;;5071653;28;20121;-69
2022/05/02 02:30:42;;;;;;;9.10;6.65;;;6.50;99.90;;;;;;5071786;28;20090;-69
2022/05/02 02:33:08;;;;;;;10.15;7.55;;;6.40;99.90;;;;;;5071571;28;20443;-69
2022/05/02 02:35:34;;;;;;;14.23;7.13;;;6.40;99.90;;;;;;5071797;28;20043;-69
2022/05/02 02:38:00;;;;;;;8.57;6.85;;;6.40;99.90;;;;;;5054849;28;20416;-69
2022/05/02 02:40:25;;;;;;;8.98;6.50;;;6.40;99.90;;;;;;5071557;28;20496;-69
2022/05/02 02:42:51;;;;;;;9.55;7.13;;;6.40;99.90;;;;;;5055048;28;20101;-69
2022/05/02 02:45:17;;;;;;;9.57;6.65;;;6.40;99.90;;;;;;5071435;28;20051;-69
2022/05/02 02:47:43;;;;;;;9.43;6.88;;;6.40;99.90;;;;;;5071256;28;20072;-69
2022/05/02 02:50:09;;;;;;;9.07;7.50;;;6.40;99.90;;;;;;5071359;28;20493;-69
2022/05/02 02:52:35;;;;;;;9.00;7.05;;;6.40;99.90;;;;;;5071420;28;20040;-69
2022/05/02 02:55:00;;;;;;;10.63;7.07;;;6.40;99.90;;;;;;5055535;28;20044;-69
2022/05/02 02:57:26;;;;;;;9.88;7.03;;;6.30;99.90;;;;;;5075320;28;20032;-69
2022/05/02 02:59:52;;;;;;;8.73;7.30;;;6.30;99.90;;;;;;5075236;28;20405;-69
2022/05/02 03:02:17;;;;;;;11.18;6.95;;;6.30;99.90;;;;;;5075206;28;20048;-69
2022/05/02 03:07:28;;;;;;;8.43;7.38;;;6.20;99.90;;;;;;5075068;28;20036;-69
2022/05/02 03:09:54;;;;;;;8.60;7.00;;;6.10;99.90;;;;;;5075253;28;20059;-69
2022/05/02 03:12:20;;;;;;;10.73;6.78;;;6.10;99.90;;;;;;5074985;28;20044;-69
2022/05/02 03:14:46;;;;;;;9.73;7.70;;;6.10;99.90;;;;;;5075199;28;20044;-69
2022/05/02 03:17:12;;;;;;;8.85;7.38;;;6.10;99.90;;;;;;5074867;28;20040;-69
2022/05/02 03:19:38;;;;;;;9.57;7.88;;;6.00;99.90;;;;;;5074845;28;20061;-69
2022/05/02 03:22:04;;;;;;;10.05;7.53;;;6.00;99.90;;;;;;5058451;28;20040;-69
2022/05/02 03:24:30;;;;;;;9.35;7.53;;;6.00;99.90;;;;;;5074801;28;20052;-69
2022/05/02 03:26:55;;;;;;;9.40;8.45;;;6.00;99.90;;;;;;5074927;28;20157;-69
2022/05/02 03:29:21;;;;;;;12.50;8.40;;;6.00;99.90;;;;;;5074943;28;20574;-69
2022/05/02 03:31:47;;;;;;;10.52;8.18;;;6.00;99.90;;;;;;5057906;28;20045;-69
2022/05/02 03:34:12;;;;;;;9.00;7.80;;;5.90;99.90;;;;;;5074856;28;20035;-69
2022/05/02 03:36:38;;;;;;;8.85;7.93;;;5.90;99.90;;;;;;5074512;28;20097;-69
2022/05/02 03:39:04;;;;;;;12.32;8.52;;;5.90;99.90;;;;;;5074546;28;20400;-69
2022/05/02 03:41:30;;;;;;;10.93;8.02;;;5.90;99.90;;;;;;5074447;28;20044;-69
2022/05/02 03:43:56;;;;;;;10.32;8.32;;;5.90;99.90;;;;;;5074407;28;20461;-69
2022/05/02 03:46:22;;;;;;;9.95;8.38;;;5.90;99.90;;;;;;5057633;28;20050;-69
2022/05/02 03:48:48;;;;;;;10.18;8.27;;;5.80;99.90;;;;;;5074286;28;20119;-69
2022/05/02 03:51:13;;;;;;;11.68;7.88;;;5.80;99.90;;;;;;5074219;28;20045;-69
2022/05/02 03:53:39;;;;;;;12.73;9.02;;;5.80;99.90;;;;;;5074559;28;20037;-69
2022/05/02 03:56:05;;;;;;;11.77;8.82;;;5.80;99.90;;;;;;5074147;28;20501;-69
2022/05/02 03:58:31;;;;;;;12.80;9.68;;;5.80;99.90;;;;;;5057450;28;20033;-69
2022/05/02 04:00:57;;;;;;;16.23;9.98;;;5.80;99.90;;;;;;5074132;28;20127;-69
2022/05/02 04:03:22;;;;;;;13.90;10.23;;;5.80;99.90;;;;;;5074142;28;20074;-69
2022/05/02 04:05:48;;;;;;;14.63;9.80;;;5.80;99.90;;;;;;5074090;28;20083;-69
2022/05/02 04:08:14;;;;;;;12.45;10.10;;;5.80;99.90;;;;;;5073336;28;20048;-69
2022/05/02 04:10:39;;;;;;;13.55;10.38;;;5.80;99.90;;;;;;5057183;28;20041;-69
2022/05/02 04:13:05;;;;;;;11.82;10.32;;;5.80;99.90;;;;;;5073958;28;20045;-69
2022/05/02 04:15:30;;;;;;;14.75;10.65;;;5.80;99.90;;;;;;5057163;28;20036;-69
2022/05/02 04:17:58;;;;;;;14.02;10.30;;;5.80;99.90;;;;;;5074070;28;20082;-69
2022/05/02 04:20:24;;;;;;;14.38;10.80;;;5.90;99.90;;;;;;5073776;28;20477;-69
2022/05/02 04:22:50;;;;;;;12.98;10.15;;;5.90;99.90;;;;;;5056981;28;20044;-69
2022/05/02 04:25:15;;;;;;;15.32;10.68;;;5.90;99.90;;;;;;5073901;28;20127;-69
2022/05/02 04:27:41;;;;;;;13.73;10.60;;;5.90;99.90;;;;;;5073920;28;20111;-69
2022/05/02 04:30:07;;;;;;;10.68;9.57;;;5.90;99.90;;;;;;5073734;28;20082;-69
2022/05/02 04:32:33;;;;;;;12.85;10.43;;;5.90;99.90;;;;;;5056921;28;20033;-69
2022/05/02 04:34:59;;;;;;;16.02;11.20;;;5.90;99.90;;;;;;5073609;28;20028;-69
2022/05/02 04:37:25;;;;;;;12.18;10.85;;;5.90;99.90;;;;;;5073425;28;20470;-69
2022/05/02 04:39:51;;;;;;;12.18;10.60;;;5.90;99.90;;;;;;5073611;28;20075;-69
2022/05/02 04:42:17;;;;;;;12.45;10.43;;;5.90;99.90;;;;;;5073313;28;20507;-69
2022/05/02 04:44:43;;;;;;;12.38;11.00;;;5.90;99.90;;;;;;5073503;28;20188;-69
2022/05/02 04:47:08;;;;;;;12.88;10.80;;;5.90;99.90;;;;;;5073284;28;20123;-69
2022/05/02 04:49:34;;;;;;;15.48;11.05;;;5.90;99.90;;;;;;5073229;28;20382;-69
2022/05/02 04:52:00;;;;;;;13.32;11.10;;;6.00;99.90;;;;;;5073063;28;20033;-69
2022/05/02 04:54:25;;;;;;;13.48;10.93;;;6.00;99.90;;;;;;5056409;28;20071;-69
2022/05/02 04:56:51;;;;;;;12.85;11.07;;;6.00;99.90;;;;;;5072961;28;20043;-69
2022/05/02 04:59:16;;;;;;;14.20;11.23;;;6.00;99.90;;;;;;5073131;28;20037;-69
2022/05/02 05:01:42;;;;;;;13.40;11.35;;;6.00;99.90;;;;;;5072948;28;20047;-69
2022/05/02 05:04:09;;;;;;;13.70;11.23;;;6.00;99.90;;;;;;5072861;28;20054;-69
2022/05/02 05:06:35;;;;;;;15.65;11.35;;;6.10;99.90;;;;;;5072787;28;20526;-69
2022/05/02 05:09:00;;;;;;;13.52;10.68;;;6.10;99.90;;;;;;5056137;28;20415;-69
2022/05/02 05:11:54;;;;;;;14.95;11.70;;;6.20;99.90;;;;;;5072736;28;20557;-69
2022/05/02 05:18:00;;;;;;;13.88;11.30;;;6.30;99.90;;;;;;5072394;28;20508;-69
2022/05/02 05:20:43;;;;;;;14.15;11.50;;;6.30;99.90;;;;;;5055945;28;20052;-69
2022/05/02 05:23:28;;;;;;;;;;;6.40;99.90;;;;;;5073250;28;20037;-69
2022/05/02 05:26:07;;;;;;;14.32;11.40;;;6.40;99.90;;;;;;5055740;28;19923;-69
2022/05/02 05:28:55;;;;;;;16.15;11.57;;;6.40;99.90;;;;;;5072686;28;20437;-69
2022/05/02 05:31:36;;;;;;;15.13;12.00;;;6.50;99.90;;;;;;5072449;28;20063;-69
2022/05/02 05:34:07;;;;;;;15.25;11.70;;;6.60;99.90;;;;;;5056841;28;20433;-69
2022/05/02 05:36:36;;;;;;;14.00;11.65;;;6.60;99.90;;;;;;5072426;28;20115;-71
2022/05/02 05:39:06;;;;;;;13.35;11.55;;;6.70;99.90;;;;;;5072242;28;20409;-71
2022/05/02 05:41:50;;;;;;;17.45;12.43;;;6.70;99.90;;;;;;5072181;28;20097;-69
2022/05/02 05:44:27;;;;;;;14.88;11.88;;;6.80;99.90;;;;;;5072203;28;20131;-69
2022/05/02 05:47:15;;;;;;;16.05;11.65;;;6.80;99.90;;;;;;5055480;28;20056;-69
2022/05/02 05:49:49;;;;;;;15.55;12.43;;;6.90;99.90;;;;;;5072208;28;20044;-69
2022/05/02 05:52:40;;;;;;;15.25;11.63;;;6.90;99.90;;;;;;5072192;28;20119;-69
2022/05/02 05:55:09;;;;;;;12.95;11.57;;;7.00;99.90;;;;;;5072123;28;20044;-69
2022/05/02 05:57:47;;;;;;;14.63;11.73;;;7.00;99.90;;;;;;5072565;28;20050;-69
2022/05/02 06:00:14;;;;;;;12.68;11.30;;;7.10;99.90;;;;;;5072107;28;20124;-69
2022/05/02 06:03:11;;;;;;;18.23;11.80;;;7.10;99.90;;;;;;5071976;28;20102;-69
2022/05/02 06:05:47;;;;;;;15.52;11.90;;;7.20;99.90;;;;;;5071899;28;20094;-69
2022/05/02 06:08:19;;;;;;;12.57;10.90;;;7.30;99.90;;;;;;5072175;28;20079;-69
2022/05/02 06:10:47;;;;;;;12.82;11.50;;;7.30;99.90;;;;;;5071960;28;20503;-69
2022/05/02 06:13:18;;;;;;;13.48;11.98;;;7.40;99.90;;;;;;5071852;28;20412;-69
2022/05/02 06:18:36;;;;;;;12.43;11.07;;;7.60;99.90;;;;;;5072093;28;20045;-69
2022/05/02 06:21:04;;;;;;;14.25;11.23;;;7.70;99.90;;;;;;5072108;28;20044;-69
2022/05/02 06:23:40;;;;;;;14.35;11.38;;;7.80;99.90;;;;;;5071832;28;20041;-69
2022/05/02 06:26:06;;;;;;;12.73;10.60;;;7.90;99.90;;;;;;5071671;28;20094;-69
2022/05/02 06:28:42;;;;;;;12.80;11.40;;;8.00;99.90;;;;;;5071735;28;20090;-69
2022/05/02 06:31:31;;;;;;;13.93;11.38;;;8.10;99.90;;;;;;5074573;28;20123;-69
2022/05/02 06:33:57;;;;;;;13.95;11.70;;;8.10;99.90;;;;;;5076129;28;20400;-69
2022/05/02 06:36:42;;;;;;;12.45;10.73;;;8.20;99.90;;;;;;5075744;28;20045;-69
2022/05/02 06:39:31;;;;;;;12.85;10.73;;;8.30;99.90;;;;;;5075996;28;20076;-69
2022/05/02 06:42:35;;;;;;;13.95;10.82;;;8.40;99.90;;;;;;5075777;28;20045;-70
2022/05/02 06:45:44;;;;;;;14.48;10.80;;;8.50;99.90;;;;;;5052891;28;20445;-69
2022/05/02 06:48:32;;;;;;;17.45;12.35;;;8.60;99.90;;;;;;5075745;28;20489;-69
2022/05/02 06:51:06;;;;;;;14.27;11.48;;;8.70;99.90;;;;;;5075467;28;20128;-69
2022/05/02 06:54:09;;;;;;;12.98;11.55;;;8.80;99.90;;;;;;5059076;28;20408;-69
2022/05/02 06:56:46;;;;;;;17.20;11.35;;;9.00;99.90;;;;;;5075340;28;20094;-69
2022/05/02 06:59:31;;;;;;;17.13;12.02;;;9.00;99.90;;;;;;5075575;28;20037;-69
2022/05/02 07:02:12;;;;;;;14.23;11.43;;;9.20;99.90;;;;;;5075342;28;20125;-69
2022/05/02 07:04:51;;;;;;;15.85;11.40;;;9.30;99.90;;;;;;5075483;28;20037;-69
2022/05/02 07:07:40;;;;;;;13.15;11.75;;;9.40;99.90;;;;;;5075070;28;20501;-69
2022/05/02 07:10:10;;;;;;;15.38;10.85;;;9.50;99.90;;;;;;5075058;28;20044;-69
2022/05/02 07:13:00;;;;;;;17.48;11.30;;;9.60;99.90;;;;;;5075084;28;20082;-69
2022/05/02 07:15:44;;;;;;;15.43;11.52;;;9.70;99.90;;;;;;5044872;28;20071;-69
2022/05/02 07:18:51;;;;;;;14.70;11.48;;;9.90;99.90;;;;;;5058594;28;20036;-70
2022/05/02 07:21:16;;;;;;;12.05;10.65;;;10.00;99.90;;;;;;5074900;28;20101;-70
2022/05/02 07:24:15;;;;;;;14.38;11.02;;;10.10;99.90;;;;;;5074832;28;20041;-69
2022/05/02 07:26:45;;;;;;;15.10;10.60;;;10.30;99.90;;;;;;5074806;28;20416;-69
2022/05/02 07:29:14;;;;;;;14.90;11.52;;;10.40;99.90;;;;;;5058178;28;20044;-70
2022/05/02 07:31:40;;;;;;;21.90;11.25;;;10.50;99.90;;;;;;5074674;28;20090;-70
2022/05/02 07:34:06;;;;;;;17.63;11.18;;;10.70;99.90;;;;;;5074964;28;20044;-69
2022/05/02 07:36:35;;;;;;;19.20;11.30;;;10.80;99.90;;;;;;5057946;28;20511;-69
2022/05/02 07:39:06;;;;;;;13.50;11.48;;;10.80;99.90;;;;;;5074624;28;20040;-69
2022/05/02 07:41:35;;;;;;;14.82;11.73;;;11.00;99.90;;;;;;5074523;28;20531;-69
2022/05/02 07:44:06;;;;;;;14.05;11.10;;;11.10;99.90;;;;;;5074545;28;20047;-69
2022/05/02 07:46:36;;;;;;;17.13;11.65;;;11.30;99.90;;;;;;5074746;28;20488;-70
2022/05/02 07:49:03;;;;;;;16.20;11.48;;;11.40;99.90;;;;;;5074735;28;20040;-70
2022/05/02 07:51:29;;;;;;;12.07;10.30;;;11.50;99.90;;;;;;5074329;28;20080;-70
2022/05/02 07:53:58;;;;;;;16.50;10.15;;;11.70;99.90;;;;;;5074367;28;20048;-70
2022/05/02 07:56:26;;;;;;;14.23;10.57;;;11.80;99.90;;;;;;5074493;28;20028;-70
2022/05/02 07:58:54;;;;;;;15.57;11.30;;;11.90;99.90;;;;;;5074339;28;20036;-70
2022/05/02 08:01:24;;;;;;;14.88;10.18;;;12.00;99.90;;;;;;5074397;28;20041;-70
2022/05/02 08:03:51;;;;;;;14.52;10.23;;;12.20;99.90;;;;;;5074111;28;20405;-70
2022/05/02 08:06:43;;;;;;;13.95;9.65;;;12.40;99.90;;;;;;5074563;28;20201;-71
2022/05/02 08:09:11;;;;;;;11.32;9.50;;;12.60;99.90;;;;;;5074110;28;20083;-71
2022/05/02 08:12:01;;;;;;;12.68;8.30;;;12.80;99.90;;;;;;5073943;28;20122;-71
2022/05/02 08:15:00;;;;;;;15.73;9.88;;;13.00;99.90;;;;;;5073910;28;20485;-71
2022/05/02 08:17:47;;;;;;;10.73;8.32;;;13.10;99.90;;;;;;5055103;28;20045;-71
2022/05/02 08:20:23;;;;;;;11.75;9.25;;;13.20;99.90;;;;;;5073938;28;20033;-71
2022/05/02 08:29:21;;;;;;;11.07;7.55;;;13.70;99.90;;;;;;5073722;28;20040;-71
2022/05/02 08:32:10;;;;;;;10.88;7.35;;;13.80;99.90;;;;;;5073749;28;20044;-71
2022/05/02 08:34:38;;;;;;;11.00;6.90;;;14.00;99.90;;;;;;5056944;28;20101;-71
2022/05/02 08:37:17;;;;;;;11.68;7.00;;;14.10;99.90;;;;;;5073634;28;20097;-71
2022/05/02 08:40:13;;;;;;;8.05;6.20;;;14.30;99.90;;;;;;5073772;28;20554;-71
2022/05/02 08:43:20;;;;;;;12.68;7.03;;;14.40;98.10;;;;;;5073454;28;20493;-72
2022/05/02 08:46:13;;;;;;;10.00;7.00;;;14.60;99.90;;;;;;5067620;28;20091;-72
2022/05/02 08:52:05;;;;;;;15.02;7.68;;;15.00;97.70;;;;;;5073200;28;20470;-71
2022/05/02 08:54:51;;;;;;;8.90;6.85;;;15.10;99.20;;;;;;5072742;28;20040;-71
2022/05/02 08:57:48;;;;;;;18.95;8.18;;;15.10;96.60;;;;;;5073305;28;20131;-71
2022/05/02 09:00:36;;;;;;;13.98;7.40;;;15.10;97.50;;;;;;5073090;28;20413;-71
2022/05/02 09:03:21;;;;;;;7.70;5.72;;;15.10;94.50;;;;;;5056631;28;20048;-71
2022/05/02 09:06:31;;;;;;;8.00;6.32;;;15.20;95.90;;;;;;5072844;28;20044;-71
2022/05/02 09:09:18;;;;;;;10.52;6.78;;;15.40;95.60;;;;;;5034455;28;20172;-71
2022/05/02 09:12:03;;;;;;;7.72;6.18;;;15.70;93.90;;;;;;5072901;28;20048;-72
2022/05/02 09:15:12;;;;;;;12.15;6.38;;;16.00;86.70;;;;;;5056166;28;20404;-72
2022/05/02 09:18:17;;;;;;;9.82;6.40;;;16.30;81.00;;;;;;5072685;28;20500;-71
2022/05/02 09:21:12;;;;;;;9.23;6.30;;;16.30;72.60;;;;;;5072914;28;20040;-71
2022/05/02 09:24:00;;;;;;;7.63;6.05;;;16.40;74.70;;;;;;5073200;28;20463;-71
2022/05/02 09:26:42;;;;;;;8.38;5.57;;;16.60;73.20;;;;;;5072836;28;20036;-71
2022/05/02 09:29:53;;;;;;;7.35;6.20;;;16.80;71.50;;;;;;5072991;28;20087;-70
2022/05/02 09:32:38;;;;;;;7.72;6.07;;;16.90;70.40;;;;;;5072428;28;20040;-70
2022/05/02 09:35:05;;;;;;;9.93;5.35;;;17.10;73.10;;;;;;5056001;28;20044;-70
2022/05/02 09:37:45;;;;;;;7.50;5.63;;;17.30;69.90;;;;;;5072272;28;20048;-70
2022/05/02 09:40:12;;;;;;;10.18;6.10;;;17.50;64.90;;;;;;5072210;28;20117;-70
2022/05/02 09:43:05;;;;;;;7.22;5.18;;;17.60;64.00;;;;;;5072438;28;20051;-70
2022/05/02 09:52:01;;;;;;;7.03;5.25;;;18.10;62.50;;;;;;5073272;28;20117;-71
2022/05/02 09:57:27;;;;;;;10.30;5.13;;;18.20;63.60;;;;;;5072022;28;20045;-70
2022/05/02 10:02:48;;;;;;;6.85;4.18;;;18.50;60.90;;;;;;5071975;28;20079;-71
2022/05/02 10:05:21;;;;;;;7.22;4.72;;;18.60;58.20;;;;;;5071145;28;21409;-72
2022/05/02 10:08:33;;;;;;;7.63;5.32;;;18.70;57.70;;;;;;5071915;28;20523;-72
2022/05/02 10:11:17;;;;;;;6.38;4.95;;;18.80;55.70;;;;;;5067683;28;20529;-72
2022/05/02 10:13:56;;;;;;;7.10;4.82;;;18.80;57.30;;;;;;5055188;28;20036;-72
2022/05/02 10:16:57;;;;;;;12.40;5.43;;;18.80;55.00;;;;;;5071821;28;20497;-72
2022/05/02 10:19:31;;;;;;;6.95;4.60;;;18.70;53.80;;;;;;5071893;28;20045;-72
2022/05/02 10:22:22;;;;;;;8.48;5.60;;;18.90;56.80;;;;;;5072099;28;20044;-72
2022/05/02 10:25:15;;;;;;;7.13;4.95;;;19.00;53.30;;;;;;5071802;28;20127;-72
2022/05/02 10:28:21;;;;;;;7.47;5.15;;;19.10;53.90;;;;;;5055030;28;20082;-72
2022/05/02 10:30:57;;;;;;;6.78;4.45;;;19.20;53.60;;;;;;5071679;28;20454;-71
2022/05/02 10:33:34;;;;;;;8.25;5.18;;;19.40;52.50;;;;;;5071692;28;20105;-71
2022/05/02 10:36:04;;;;;;;7.22;4.43;;;19.40;51.90;;;;;;5071670;28;20093;-71
2022/05/02 10:38:34;;;;;;;6.63;4.20;;;19.30;52.40;;;;;;5071563;28;20526;-71
2022/05/02 10:41:27;;;;;;;5.78;3.97;;;19.30;51.60;;;;;;5071715;28;20036;-71
2022/05/02 10:44:06;;;;;;;8.57;4.35;;;19.40;50.20;;;;;;5054834;28;20049;-71
2022/05/02 10:46:33;;;;;;;6.40;4.15;;;19.50;51.20;;;;;;5072783;28;20524;-71
2022/05/02 10:49:20;;;;;;;5.38;4.35;;;19.60;50.90;;;;;;5071719;28;20170;-71
2022/05/02 10:52:00;;;;;;;6.20;4.20;;;19.70;49.20;;;;;;5072091;28;20072;-71
2022/05/02 10:54:45;;;;;;;5.65;4.50;;;19.70;49.30;;;;;;5071787;28;20053;-71
2022/05/02 10:57:30;;;;;;;5.60;3.50;;;19.80;50.60;;;;;;5071524;28;20493;-71
2022/05/02 11:00:02;;;;;;;8.48;4.50;;;19.90;48.70;;;;;;5071887;28;20090;-71
2022/05/02 11:03:07;;;;;;;5.13;3.80;;;19.90;47.60;;;;;;5072099;28;20047;-71
2022/05/02 11:05:57;;;;;;;9.13;5.00;;;20.10;48.30;;;;;;5072706;28;20075;-71
2022/05/02 11:08:42;;;;;;;8.80;4.03;;;20.40;48.30;;;;;;5054921;28;20036;-71
2022/05/02 11:11:11;;;;;;;6.30;3.97;;;20.50;49.10;;;;;;5071281;28;20051;-72
2022/05/02 11:13:52;;;;;;;5.00;4.25;;;20.60;48.90;;;;;;5071570;28;20040;-72
2022/05/02 11:16:26;;;;;;;6.28;3.70;;;20.80;47.10;;;;;;5072552;28;20048;-71
2022/05/02 11:22:16;;;;;;;5.38;3.58;;;20.90;45.30;;;;;;5074921;28;20040;-71
2022/05/02 11:25:06;;;;;;;5.88;4.38;;;20.90;46.90;;;;;;5075185;28;20075;-71
2022/05/02 11:27:50;;;;;;;5.47;4.13;;;21.10;47.30;;;;;;5074867;28;20048;-71
2022/05/02 11:30:22;;;;;;;6.22;3.55;;;21.20;44.70;;;;;;5074677;28;20519;-71
2022/05/02 11:33:23;;;;;;;8.10;4.27;;;21.20;45.50;;;;;;5058128;28;20043;-71
2022/05/02 11:35:51;;;;;;;6.57;3.83;;;21.20;44.40;;;;;;5074663;28;20285;-71
2022/05/02 11:38:41;;;;;;;5.63;3.75;;;21.30;46.10;;;;;;5074639;28;20044;-71
2022/05/02 11:41:18;;;;;;;8.82;3.90;;;21.30;45.10;;;;;;5074929;28;20085;-71
2022/05/02 11:43:45;;;;;;;5.30;3.58;;;21.40;43.50;;;;;;5074590;28;20480;-71
2022/05/02 11:46:22;;;;;;;8.88;4.32;;;21.70;44.90;;;;;;5074453;28;20131;-71
2022/05/02 11:49:16;;;;;;;7.28;4.40;;;21.90;45.50;;;;;;5074328;28;20087;-71
2022/05/02 11:51:50;;;;;;;7.78;4.80;;;22.00;45.20;;;;;;5074371;28;20047;-71
2022/05/02 11:54:39;;;;;;;7.43;4.95;;;22.10;46.00;;;;;;5074421;28;20044;-71
2022/05/02 11:57:22;;;;;;;7.60;4.78;;;22.20;45.30;;;;;;5075097;28;20044;-71
2022/05/02 12:00:14;;;;;;;8.10;4.63;;;22.30;44.50;;;;;;5074624;28;20032;-70
2022/05/02 12:02:56;;;;;;;7.97;4.53;;;22.30;45.20;;;;;;5074545;28;20051;-70
2022/05/02 12:05:36;;;;;;;4.73;4.23;;;22.30;44.10;;;;;;5057515;28;20405;-70
2022/05/02 12:08:05;;;;;;;7.20;4.85;;;22.20;43.60;;;;;;5057446;28;20484;-70
2022/05/02 12:10:33;;;;;;;7.60;4.60;;;22.20;44.50;;;;;;5058331;28;20044;-70
2022/05/02 12:12:59;;;;;;;7.28;4.18;;;22.20;44.10;;;;;;5074089;28;20033;-70
2022/05/02 12:15:25;;;;;;;6.50;4.38;;;22.30;43.60;;;;;;5073963;28;20044;-71
2022/05/02 12:18:06;;;;;;;7.47;4.30;;;22.30;43.90;;;;;;5074035;28;20103;-71
2022/05/02 12:20:40;;;;;;;6.50;4.25;;;22.30;44.00;;;;;;5073962;28;20497;-71
2022/05/02 12:23:15;;;;;;;6.63;4.88;;;22.20;43.70;;;;;;5057180;28;20124;-70
2022/05/02 12:25:56;;;;;;;7.75;4.60;;;22.20;44.20;;;;;;5073755;28;20044;-70
2022/05/02 12:28:44;;;;;;;9.82;5.18;;;22.10;43.60;;;;;;5056208;28;20040;-70
2022/05/02 12:31:15;;;;;;;8.25;4.97;;;22.10;42.90;;;;;;5073591;28;20055;-70
2022/05/02 12:33:45;;;;;;;8.10;5.22;;;22.20;44.00;;;;;;5073914;28;20496;-70
2022/05/02 12:36:16;;;;;;;8.50;5.07;;;22.30;43.00;;;;;;5073825;28;20495;-71
2022/05/02 12:38:49;;;;;;;6.20;4.60;;;22.40;42.30;;;;;;5073573;28;20083;-71
2022/05/02 12:41:27;;;;;;;5.72;5.00;;;22.50;42.60;;;;;;5073548;28;20106;-71
2022/05/02 12:44:05;;;;;;;8.52;4.35;;;22.70;43.00;;;;;;5056820;28;20040;-71
2022/05/02 12:46:40;;;;;;;6.72;4.70;;;22.80;42.80;;;;;;5073695;28;20040;-71
2022/05/02 12:49:14;;;;;;;10.45;4.70;;;22.80;42.60;;;;;;5073578;28;20048;-71
2022/05/02 12:51:48;;;;;;;7.43;4.30;;;22.80;42.10;;;;;;5073235;28;20515;-71
2022/05/02 12:54:14;;;;;;;5.13;4.03;;;23.00;42.50;;;;;;5075098;28;20047;-71
2022/05/02 13:02:50;;;;;;;6.25;4.05;;;23.30;41.60;;;;;;5073040;28;20044;-72
2022/05/02 13:05:19;;;;;;;9.57;4.45;;;23.50;42.20;;;;;;5072985;28;20123;-72
2022/05/02 13:07:52;;;;;;;6.07;4.05;;;23.50;41.50;;;;;;5073161;28;20044;-72
2022/05/02 13:10:22;;;;;;;7.80;4.15;;;23.50;40.20;;;;;;5073057;28;20401;-72
2022/05/02 13:13:11;;;;;;;7.00;4.15;;;23.60;39.80;;;;;;5072911;28;20043;-72
2022/05/02 13:15:36;;;;;;;7.15;4.32;;;23.80;39.50;;;;;;5072811;28;20046;-71
2022/05/02 13:18:22;;;;;;;7.15;4.68;;;23.60;39.50;;;;;;5073065;28;20127;-71
2022/05/02 13:21:02;;;;;;;5.32;3.90;;;23.70;38.60;;;;;;5072731;28;20124;-70
2022/05/02 13:23:43;;;;;;;9.93;4.38;;;23.50;40.50;;;;;;5072589;28;20056;-70
2022/05/02 13:26:40;;;;;;;8.95;4.22;;;23.30;39.70;;;;;;5055887;28;20051;-70
2022/05/02 13:29:28;;;;;;;5.28;4.07;;;23.20;39.70;;;;;;5072827;28;20052;-70
2022/05/02 13:32:04;;;;;;;8.07;4.10;;;23.10;41.00;;;;;;5072524;28;20044;-70
2022/05/02 13:35:09;;;;;;;8.50;4.40;;;23.10;41.90;;;;;;5072457;28;20047;-71
2022/05/02 13:37:47;;;;;;;11.07;4.55;;;23.30;39.60;;;;;;5072386;28;20040;-71
2022/05/02 13:40:21;;;;;;;8.63;4.30;;;23.30;39.70;;;;;;5072226;28;20090;-71
2022/05/02 13:43:05;;;;;;;8.65;4.82;;;23.20;40.20;;;;;;5072297;28;20504;-71
2022/05/02 13:45:38;;;;;;;5.78;3.97;;;23.00;41.00;;;;;;5072213;28;20083;-71
2022/05/02 13:48:22;;;;;;;7.63;4.07;;;23.10;41.40;;;;;;5072200;28;20514;-71
2022/05/02 13:50:57;;;;;;;7.80;4.25;;;23.10;41.40;;;;;;5072316;28;20059;-71
2022/05/02 13:54:02;;;;;;;9.45;4.68;;;23.20;40.70;;;;;;5072454;28;20036;-71
2022/05/02 13:57:04;;;;;;;7.50;4.68;;;23.20;40.60;;;;;;5072058;28;20041;-71
2022/05/02 13:59:50;;;;;;;8.48;4.20;;;23.20;40.60;;;;;;5072119;28;20047;-71
2022/05/02 14:03:10;;;;;;;10.68;4.32;;;23.10;41.10;;;;;;5072324;28;20055;-71
2022/05/02 14:06:12;;;;;;;7.18;3.97;;;23.20;40.90;;;;;;5042740;28;20102;-71